createdAt,value
2022-08-25T00:02:38.118Z,81
2022-08-25T00:12:38.563Z,79
2022-08-25T00:22:38.656Z,81
2022-08-25T00:32:39.621Z,82
2022-08-25T00:42:40.627Z,79
2022-08-25T00:52:41.080Z,71
2022-08-25T01:02:42.156Z,70
2022-08-25T01:12:42.305Z,66
2022-08-25T01:22:42.677Z,56
2022-08-25T01:32:43.664Z,44
2022-08-25T01:42:43.746Z,25
2022-08-25T01:52:43.781Z,8
2022-08-25T02:02:44.276Z,11
2022-08-25T02:12:44.571Z,36
2022-08-25T02:22:45.083Z,45
2022-08-25T02:32:45.451Z,56
2022-08-25T02:42:46.000Z,45
2022-08-25T02:52:46.904Z,23
2022-08-25T03:02:47.583Z,0
2022-08-25T03:12:47.974Z,0
2022-08-25T03:22:48.260Z,0
2022-08-25T03:32:48.904Z,0
2022-08-25T03:42:49.849Z,0
2022-08-25T03:52:49.979Z,0
2022-08-25T04:02:50.406Z,0
2022-08-25T04:12:50.562Z,0
2022-08-25T04:22:50.854Z,0
2022-08-25T04:32:51.766Z,0
2022-08-25T04:42:52.174Z,0
2022-08-25T04:52:52.700Z,0
2022-08-25T05:02:53.096Z,0
2022-08-25T05:05:31.462Z,0
2022-08-25T05:13:02.158Z,0
2022-08-25T05:23:02.973Z,0
2022-08-25T05:33:03.652Z,0
2022-08-25T05:43:04.579Z,0
2022-08-25T05:53:05.156Z,0
2022-08-25T06:03:06.138Z,0
2022-08-25T06:13:06.939Z,0
2022-08-25T06:23:07.662Z,2
2022-08-25T06:33:07.888Z,10
2022-08-25T06:43:08.307Z,18
2022-08-25T06:53:08.865Z,27
2022-08-25T07:03:09.813Z,37
2022-08-25T07:13:10.082Z,43
2022-08-25T07:23:10.636Z,51
2022-08-25T07:33:11.330Z,56
2022-08-25T07:43:11.997Z,55
2022-08-25T07:53:12.715Z,68
2022-08-25T08:03:24.025Z,78
2022-08-25T08:13:17.852Z,84
2022-08-25T08:23:14.233Z,88
2022-08-25T08:33:14.548Z,88
2022-08-25T08:43:18.271Z,91
2022-08-25T08:53:15.299Z,93
2022-08-25T09:03:15.748Z,93
2022-08-25T09:13:16.526Z,94
2022-08-25T09:23:16.658Z,94
2022-08-25T09:33:20.914Z,94
2022-08-25T09:43:16.942Z,93
2022-08-25T09:53:18.835Z,89
2022-08-25T10:03:17.682Z,87
2022-08-25T10:13:22.558Z,86
2022-08-25T10:23:18.558Z,84
2022-08-25T10:33:19.460Z,86
2022-08-25T10:43:19.945Z,85
2022-08-25T10:53:20.209Z,84
2022-08-25T11:03:20.317Z,82
2022-08-25T11:13:20.348Z,80
2022-08-25T11:23:20.996Z,81
2022-08-25T11:33:21.511Z,81
2022-08-25T11:43:21.835Z,82
2022-08-25T11:53:26.580Z,79
2022-08-25T12:03:22.379Z,77
2022-08-25T12:13:23.132Z,76
2022-08-25T12:23:23.263Z,77
2022-08-25T12:33:23.642Z,76
2022-08-25T12:43:24.821Z,75
2022-08-25T12:53:24.586Z,75
2022-08-25T13:03:25.455Z,73
2022-08-25T13:13:26.389Z,72
2022-08-25T13:23:26.512Z,72
2022-08-25T13:33:27.398Z,71
2022-08-25T13:43:27.845Z,71
2022-08-25T13:53:30.379Z,69
2022-08-25T14:03:28.832Z,69
2022-08-25T14:13:31.079Z,70
2022-08-25T14:23:29.927Z,71
2022-08-25T14:33:30.324Z,71
2022-08-25T14:43:31.673Z,69
2022-08-25T14:53:31.789Z,69
2022-08-25T15:03:32.538Z,70
2022-08-25T15:13:32.723Z,71
2022-08-25T15:23:33.216Z,70
2022-08-25T15:33:34.126Z,71
2022-08-25T15:43:34.583Z,69
2022-08-25T15:53:35.288Z,69
2022-08-25T16:03:36.019Z,69
2022-08-25T16:13:36.544Z,70
2022-08-25T16:23:37.404Z,70
2022-08-25T16:33:37.733Z,70
2022-08-25T16:43:37.913Z,71
2022-08-25T16:53:38.598Z,71
2022-08-25T17:03:38.804Z,72
2022-08-25T17:13:39.526Z,71
2022-08-25T17:23:40.112Z,73
2022-08-25T17:33:40.576Z,74
2022-08-25T17:43:41.181Z,75
2022-08-25T17:53:41.933Z,76
2022-08-25T18:03:42.115Z,76
2022-08-25T18:13:42.324Z,78
2022-08-25T18:23:42.417Z,79
2022-08-25T18:33:43.003Z,80
2022-08-25T18:43:43.355Z,82
2022-08-25T18:53:50.807Z,84
2022-08-25T19:03:44.288Z,86
2022-08-25T19:23:44.867Z,85
2022-08-25T19:33:45.416Z,85
2022-08-25T19:43:55.876Z,86
2022-08-25T19:53:45.413Z,87
2022-08-25T20:03:45.616Z,93
2022-08-25T20:13:46.367Z,89
2022-08-25T20:23:46.803Z,92
2022-08-25T20:33:47.354Z,94
2022-08-25T20:43:48.271Z,95
2022-08-25T20:53:48.843Z,93
2022-08-25T21:03:49.654Z,91
2022-08-25T21:13:50.266Z,90
2022-08-25T21:33:51.613Z,86
2022-08-25T21:43:51.922Z,79
2022-08-25T21:53:52.353Z,69
2022-08-25T22:13:53.482Z,37
2022-08-25T22:23:53.528Z,15
2022-08-25T22:33:53.886Z,0
2022-08-25T22:43:54.665Z,0
2022-08-25T22:53:54.738Z,0
2022-08-25T23:03:55.371Z,0
2022-08-25T23:23:56.100Z,0
2022-08-25T23:33:56.813Z,0
2022-08-25T23:43:57.253Z,0
2022-08-25T23:53:59.246Z,0
